Accueil
METAR-TAF:

METAR-TAF

Aéroports :

Erzincan, Turquie

latitude: 39-44N, longitude: 039-30E, altitude: 1156 m

Observation

Le bulletin a été fait il y a 1 heure et 10 minutes, à 20:50 UTC
Vent calme
Température -2°C
Humidité 93%
Pression 1025 hPa
Visibilité: 1600 m
brume

METAR: LTCD 192050Z 00000KT 1600 R29/1000U R11/1300D BR NSC M02/M03 Q1025 BECMG TL2200 4000

Heure: 01:00 (22:00 UTC)

Prévision

Le bulletin a été fait il y a 2 heures et 20 minutes, à 19:40 UTC
Prévision valable du 19 à 21 UTC au 20 à 06 UTC
Vent 2 kt de direction variable
Visibilité: 4000 m
brume
Temporairement
du 19 à 21 UTC au 19 à 24 UTC
Visibilité: 2000 m

TAF: LTCD 191940Z 1921/2006 VRB02KT 4000 BR NSC TEMPO 1921/1924 2000

Observations et prévisions météorologiques de plus de 4000 aéroports (messages METAR et TAF).

Les stations disponibles sont représentées par des disques jaunes et rouges sur la carte.

Passer la souris dessus pour voir le nom de la station.

Cliquer dessus pour voir les observations et prévisions météorologiques.

Pour changer de carte: cliquez sur les boutons verts avec une croix noire pour zoomer, sur le bouton vert avec un tiret pour effectuer un zoom arrière, ou sur les flèches vertes pour les cartes adjacentes.


METAR-TAF: